Fr8 Pride — V7NW5 — position and weather

sailwx.info

Track history (hours):
 
Tides and Currents Weather Stations Pressure Air Temp Water Temp Dewpoint Dewpoint Depression Visibility Wind Speed Wind Dir Waves Ship Positions

Fr8 Pride

Last reported at 2018-Feb-10 19:33 UTC. Time now 2018-Feb-26 00:00 UTC.
Position N 09°12' W 016°34'.
Warning: this ship's position is 15 days out of date.

Length 229 m; draft 13.7 m.

Type: Ship. MMSI: 538003031.

Date/timePositionNaut miles runAvg speedWind from/ knotsBaromVisibWave heightAir tempDewpointWater temp
2018-Feb-10 19:33N 09°12' W 016°34'112.9
2018-Feb-10 19:28N 09°12' W 016°35'3912.9
2018-Feb-10 16:28N 09°40' W 017°02'  
2018-Feb-07 01:11N 27°46' W 015°10'1613.4
2018-Feb-07 00:00N 28°00' W 015°03'1313.1
2018-Feb-06 22:59N 28°13' W 014°58'613.3
2018-Feb-06 22:30N 28°19' W 014°56'713.0
2018-Feb-06 21:59N 28°25' W 014°54'612.9
2018-Feb-06 21:30N 28°31' W 014°52'  
2018-Feb-02 04:37N 49°57' W 003°01'213.8
2018-Feb-02 04:30N 49°58' W 002°59'1114.3
2018-Feb-02 03:44N 50°02' W 002°43'10512.7
2018-Feb-01 19:28N 50°29' W 000°05'612.1
2018-Feb-01 19:00N 50°31' E 000°04'712.9
2018-Feb-01 18:27N 50°33' E 000°14'6112.3
2018-Feb-01 13:30N 51°06' E 001°35'4 8.8
2018-Feb-01 13:00N 51°09' E 001°40'5 9.3
2018-Feb-01 12:30N 51°12' E 001°45'510.1
2018-Feb-01 12:00N 51°17' E 001°48'1211.7
2018-Feb-01 11:00N 51°28' E 001°55'10411.6
2018-Feb-01 02:03N 52°30' E 004°10'110.4
2018-Feb-01 01:59N 52°30' E 004°11'510.5
2018-Feb-01 01:30N 52°29' E 004°19'4 7.7
2018-Feb-01 01:00N 52°29' E 004°26'510.0
2018-Feb-01 00:30N 52°28' E 004°34'2 3.6
2018-Feb-01 00:00N 52°28' E 004°37'2 2.1
2018-Jan-31 23:00N 52°28' E 004°40'3 6.3
2018-Jan-31 22:30N 52°26' E 004°44'4 2.5
2018-Jan-31 20:54N 52°25' E 004°51'0 0.0
2018-Jan-31 20:30N 52°25' E 004°51'0 0.0
2018-Jan-31 19:59N 52°25' E 004°51'  
Track history (hours):
 
Tides and Currents Weather Stations Pressure Air Temp Water Temp Dewpoint Dewpoint Depression Visibility Wind Speed Wind Dir Waves Ship Positions

Fr8 Pride

Last reported at 2018-Feb-10 19:33 UTC. Time now 2018-Feb-26 00:00 UTC.
Position N 09°12' W 016°34'.
Warning: this ship's position is 15 days out of date.

Length 229 m; draft 13.7 m.

Type: Ship. MMSI: 538003031.

Date/timePositionNaut miles runAvg speedWind from/ knotsBaromVisibWave heightAir tempDewpointWater temp
2018-Feb-10 19:33N 09°12' W 016°34'112.9
2018-Feb-10 19:28N 09°12' W 016°35'3912.9
2018-Feb-10 16:28N 09°40' W 017°02'  
2018-Feb-07 01:11N 27°46' W 015°10'1613.4
2018-Feb-07 00:00N 28°00' W 015°03'1313.1
2018-Feb-06 22:59N 28°13' W 014°58'613.3
2018-Feb-06 22:30N 28°19' W 014°56'713.0
2018-Feb-06 21:59N 28°25' W 014°54'612.9
2018-Feb-06 21:30N 28°31' W 014°52'  
2018-Feb-02 04:37N 49°57' W 003°01'213.8
2018-Feb-02 04:30N 49°58' W 002°59'1114.3
2018-Feb-02 03:44N 50°02' W 002°43'10512.7
2018-Feb-01 19:28N 50°29' W 000°05'612.1
2018-Feb-01 19:00N 50°31' E 000°04'712.9
2018-Feb-01 18:27N 50°33' E 000°14'6112.3
2018-Feb-01 13:30N 51°06' E 001°35'4 8.8
2018-Feb-01 13:00N 51°09' E 001°40'5 9.3
2018-Feb-01 12:30N 51°12' E 001°45'510.1
2018-Feb-01 12:00N 51°17' E 001°48'1211.7
2018-Feb-01 11:00N 51°28' E 001°55'10411.6
2018-Feb-01 02:03N 52°30' E 004°10'110.4
2018-Feb-01 01:59N 52°30' E 004°11'510.5
2018-Feb-01 01:30N 52°29' E 004°19'4 7.7
2018-Feb-01 01:00N 52°29' E 004°26'510.0
2018-Feb-01 00:30N 52°28' E 004°34'2 3.6
2018-Feb-01 00:00N 52°28' E 004°37'2 2.1
2018-Jan-31 23:00N 52°28' E 004°40'3 6.3
2018-Jan-31 22:30N 52°26' E 004°44'4 2.5
2018-Jan-31 20:54N 52°25' E 004°51'0 0.0
2018-Jan-31 20:30N 52°25' E 004°51'0 0.0
2018-Jan-31 19:59N 52°25' E 004°51'  

Dump ship's entire track history